createdAt,value
2022-09-13T00:01:46.513Z,79.51
2022-09-13T00:04:15.857Z,78.27
2022-09-13T00:06:46.332Z,78.05
2022-09-13T00:09:17.040Z,78.29
2022-09-13T00:11:46.260Z,78.80
2022-09-13T00:14:15.396Z,77.36
2022-09-13T00:16:44.575Z,78.90
2022-09-13T00:19:13.794Z,78.65
2022-09-13T00:21:43.066Z,78.09
2022-09-13T00:24:12.659Z,77.51
2022-09-13T00:26:43.342Z,78.73
2022-09-13T00:29:12.570Z,78.69
2022-09-13T00:31:41.801Z,78.89
2022-09-13T00:34:11.172Z,77.93
2022-09-13T00:36:40.390Z,79.03
2022-09-13T00:39:10.615Z,78.41
2022-09-13T00:41:40.255Z,78.25
2022-09-13T00:44:55.137Z,78.28
2022-09-13T00:47:33.682Z,78.26
2022-09-13T00:50:12.923Z,78.18
2022-09-13T00:52:46.647Z,78.42
2022-09-13T00:55:22.722Z,78.69
2022-09-13T00:57:53.099Z,78.12
2022-09-13T01:00:25.721Z,77.44
2022-09-13T01:03:00.568Z,78.87
2022-09-13T01:05:37.853Z,78.13
2022-09-13T01:08:18.197Z,77.25
2022-09-13T01:10:49.755Z,78.59
2022-09-13T01:13:23.029Z,77.92
2022-09-13T01:15:54.122Z,77.45
2022-09-13T01:18:23.327Z,78.42
2022-09-13T01:21:44.916Z,78.51
2022-09-13T01:25:05.974Z,77.91
2022-09-13T01:27:49.460Z,77.52
2022-09-13T01:30:21.937Z,77.42
2022-09-13T01:33:09.357Z,77.62
2022-09-13T01:35:51.897Z,77.33
2022-09-13T01:38:40.533Z,78.57
2022-09-13T01:41:25.513Z,77.64
2022-09-13T01:44:04.933Z,78.62
2022-09-13T01:46:45.030Z,78.51
2022-09-13T01:49:21.561Z,78.14
2022-09-13T01:52:00.328Z,78.87
2022-09-13T01:54:39.885Z,77.71
2022-09-13T01:57:17.337Z,78.70
2022-09-13T01:59:52.624Z,77.45
2022-09-13T02:02:32.904Z,77.84
2022-09-13T02:05:10.058Z,77.39
2022-09-13T02:07:44.281Z,77.83
2022-09-13T02:10:22.190Z,78.65
2022-09-13T02:12:54.733Z,77.74
2022-09-13T02:15:28.517Z,78.87
2022-09-13T02:18:09.665Z,77.55
2022-09-13T02:20:44.491Z,78.13
2022-09-13T02:23:17.911Z,78.41
2022-09-13T02:25:49.861Z,78.21
2022-09-13T02:28:28.691Z,77.47
2022-09-13T02:31:00.731Z,78.64
2022-09-13T02:33:37.178Z,78.15
2022-09-13T02:36:10.031Z,77.15
2022-09-13T02:38:45.569Z,77.82
2022-09-13T02:41:20.261Z,78.01
2022-09-13T02:43:55.135Z,77.52
2022-09-13T02:46:41.024Z,77.97
2022-09-13T02:49:19.013Z,78.51
2022-09-13T02:51:57.171Z,77.80
2022-09-13T02:54:34.308Z,78.37
2022-09-13T02:57:10.855Z,78.13
2022-09-13T02:59:40.399Z,78.32
2022-09-13T03:02:15.391Z,78.26
2022-09-13T03:04:46.390Z,78.22
2022-09-13T03:07:16.507Z,78.62
2022-09-13T03:09:51.483Z,78.32
2022-09-13T03:12:49.105Z,79.51
2022-09-13T03:15:37.254Z,79.35
2022-09-13T03:18:21.418Z,79.66
2022-09-13T03:21:03.165Z,79.34
2022-09-13T03:23:50.380Z,79.45
2022-09-13T03:26:28.660Z,79.21
2022-09-13T03:29:15.118Z,79.50
2022-09-13T03:31:55.444Z,78.78
2022-09-13T03:34:35.102Z,78.74
2022-09-13T03:37:16.235Z,78.84
2022-09-13T03:39:52.355Z,79.87
2022-09-13T03:42:29.773Z,80.00
2022-09-13T03:45:02.020Z,78.72
2022-09-13T03:47:35.148Z,79.94
2022-09-13T03:50:07.328Z,79.05
2022-09-13T03:52:39.786Z,78.96
2022-09-13T03:55:11.538Z,79.11
2022-09-13T03:57:40.683Z,79.16
2022-09-13T04:00:14.118Z,78.83
2022-09-13T04:02:43.398Z,79.13
2022-09-13T04:05:12.720Z,78.16
2022-09-13T04:07:48.926Z,79.09
2022-09-13T04:10:18.082Z,78.68
2022-09-13T04:12:47.192Z,78.81
2022-09-13T04:15:16.924Z,79.15
2022-09-13T04:17:46.060Z,78.52
2022-09-13T04:20:15.734Z,78.55
2022-09-13T04:22:45.248Z,78.46
2022-09-13T04:25:16.247Z,78.84
2022-09-13T04:27:45.412Z,79.17
2022-09-13T04:30:15.295Z,79.44
2022-09-13T04:32:45.573Z,79.57
2022-09-13T04:35:17.212Z,79.35
2022-09-13T04:37:46.782Z,79.52
2022-09-13T04:40:17.612Z,79.54
2022-09-13T04:42:47.056Z,80.01
2022-09-13T04:45:16.326Z,80.15
2022-09-13T04:47:45.597Z,79.17
2022-09-13T04:50:14.820Z,79.67
2022-09-13T04:52:44.120Z,79.35
2022-09-13T04:55:13.387Z,79.40
2022-09-13T04:57:43.946Z,79.47
2022-09-13T05:00:13.932Z,79.70
2022-09-13T05:02:43.103Z,79.38
2022-09-13T05:05:12.298Z,79.91
2022-09-13T05:07:41.438Z,79.60
2022-09-13T05:10:12.750Z,78.79
2022-09-13T05:12:44.560Z,79.39
2022-09-13T05:15:13.880Z,78.72
2022-09-13T05:17:43.162Z,78.70
2022-09-13T05:20:12.938Z,78.49
2022-09-13T05:22:42.054Z,78.18
2022-09-13T05:25:11.769Z,78.80
2022-09-13T05:27:40.941Z,78.38
2022-09-13T05:30:13.883Z,78.27
2022-09-13T05:32:43.064Z,78.65
2022-09-13T05:35:12.217Z,78.31
2022-09-13T05:37:41.383Z,78.62
2022-09-13T05:40:12.486Z,79.40
2022-09-13T05:42:42.191Z,79.15
2022-09-13T05:45:12.982Z,79.18
2022-09-13T05:47:42.127Z,78.88
2022-09-13T05:50:22.945Z,78.88
2022-09-13T05:53:00.896Z,79.69
2022-09-13T05:55:31.089Z,79.38
2022-09-13T05:58:00.235Z,79.01
2022-09-13T06:00:31.915Z,79.25
2022-09-13T06:03:01.121Z,79.42
2022-09-13T06:05:32.033Z,79.84
2022-09-13T06:08:01.289Z,79.33
2022-09-13T06:10:30.477Z,79.08
2022-09-13T06:12:59.591Z,79.03
2022-09-13T06:15:30.165Z,79.60
2022-09-13T06:17:59.659Z,79.18
2022-09-13T06:20:28.928Z,78.94
2022-09-13T06:22:58.009Z,80.07
2022-09-13T06:25:27.162Z,80.01
2022-09-13T06:27:56.450Z,79.53
2022-09-13T06:30:25.636Z,79.42
2022-09-13T06:32:57.830Z,80.07
2022-09-13T06:35:27.209Z,80.61
2022-09-13T06:37:58.889Z,80.26
2022-09-13T06:40:29.010Z,80.85
2022-09-13T06:42:58.439Z,81.37
2022-09-13T06:45:28.290Z,81.59
2022-09-13T06:47:59.081Z,81.96
2022-09-13T06:50:40.799Z,82.36
2022-09-13T06:53:10.448Z,81.77
2022-09-13T06:55:39.923Z,81.76
2022-09-13T06:58:14.710Z,82.42
2022-09-13T07:00:52.928Z,82.50
2022-09-13T07:03:28.349Z,82.18
2022-09-13T07:05:59.989Z,82.14
2022-09-13T07:08:32.682Z,81.84
2022-09-13T07:11:02.407Z,82.34
2022-09-13T07:13:31.613Z,82.46
2022-09-13T07:16:04.696Z,83.09
2022-09-13T07:18:35.734Z,82.79
2022-09-13T07:21:08.988Z,82.54
2022-09-13T07:23:41.301Z,82.95
2022-09-13T07:26:13.006Z,83.20
2022-09-13T07:28:44.238Z,83.61
2022-09-13T07:31:19.672Z,82.79
2022-09-13T07:33:55.576Z,83.23
2022-09-13T07:36:25.510Z,82.37
2022-09-13T07:38:58.792Z,80.93
2022-09-13T07:41:32.331Z,82.71
2022-09-13T07:44:03.112Z,81.89
2022-09-13T07:46:43.722Z,81.59
2022-09-13T07:49:21.602Z,80.52
2022-09-13T07:51:53.294Z,81.95
2022-09-13T07:54:22.519Z,80.95
2022-09-13T07:56:52.028Z,81.16
2022-09-13T07:59:21.456Z,81.02
2022-09-13T08:01:52.621Z,81.35
2022-09-13T08:04:27.158Z,82.53
2022-09-13T08:06:56.648Z,83.00
2022-09-13T08:09:27.966Z,83.32
2022-09-13T08:11:57.239Z,82.39
2022-09-13T08:14:29.632Z,82.79
2022-09-13T08:17:00.252Z,83.04
2022-09-13T08:19:31.051Z,83.13
2022-09-13T08:22:01.106Z,82.31
2022-09-13T08:24:30.265Z,83.67
2022-09-13T08:26:59.501Z,81.61
2022-09-13T08:29:28.651Z,83.13
2022-09-13T08:31:57.863Z,82.15
2022-09-13T08:34:27.368Z,82.14
2022-09-13T08:36:58.544Z,82.08
2022-09-13T08:39:29.313Z,82.25
2022-09-13T08:42:21.045Z,81.20
2022-09-13T08:44:54.665Z,82.78
2022-09-13T08:47:35.841Z,83.09
2022-09-13T08:50:17.441Z,81.97
2022-09-13T08:53:10.015Z,82.82
2022-09-13T08:55:52.703Z,82.50
2022-09-13T08:58:52.981Z,81.30
2022-09-13T09:01:48.622Z,81.92
2022-09-13T09:04:36.258Z,80.06
2022-09-13T09:07:14.623Z,80.05
2022-09-13T09:09:52.460Z,76.30
2022-09-13T09:12:35.335Z,76.56
2022-09-13T09:15:21.457Z,76.49
2022-09-13T09:18:01.371Z,78.31
2022-09-13T09:20:39.151Z,77.66
2022-09-13T09:23:20.975Z,76.92
2022-09-13T09:26:02.209Z,76.32
2022-09-13T09:28:31.763Z,79.00
2022-09-13T09:31:06.274Z,76.87
2022-09-13T09:34:02.326Z,78.32
2022-09-13T09:36:43.434Z,78.52
2022-09-13T09:39:16.455Z,78.79
2022-09-13T09:41:47.673Z,78.05
2022-09-13T09:44:22.806Z,78.39
2022-09-13T09:47:03.575Z,77.31
2022-09-13T09:50:00.072Z,77.86
2022-09-13T09:52:37.116Z,77.52
2022-09-13T09:55:27.026Z,75.63
2022-09-13T09:58:01.551Z,76.66
2022-09-13T10:00:36.644Z,76.70
2022-09-13T10:03:19.177Z,76.71
2022-09-13T10:05:48.981Z,76.33
2022-09-13T10:08:32.300Z,76.70
2022-09-13T10:11:03.293Z,76.15
2022-09-13T10:13:34.654Z,73.40
2022-09-13T10:16:24.837Z,73.01
2022-09-13T10:18:59.872Z,73.02
2022-09-13T10:21:30.687Z,72.50
2022-09-13T10:24:22.803Z,73.25
2022-09-13T10:26:57.070Z,72.45
2022-09-13T10:29:29.745Z,71.03
2022-09-13T10:32:03.784Z,69.15
2022-09-13T10:34:39.769Z,71.32
2022-09-13T10:37:21.685Z,70.03
2022-09-13T10:40:04.039Z,69.97
2022-09-13T10:42:37.170Z,69.59
2022-09-13T10:45:10.728Z,69.95
2022-09-13T10:47:46.457Z,69.61
2022-09-13T10:50:25.205Z,69.17
2022-09-13T10:52:56.395Z,69.38
2022-09-13T10:55:36.148Z,67.15
2022-09-13T10:58:19.395Z,67.24
2022-09-13T11:01:38.289Z,66.68
2022-09-13T11:05:07.016Z,66.88
2022-09-13T11:08:24.103Z,66.60
2022-09-13T11:11:11.319Z,66.50
2022-09-13T11:14:04.400Z,66.47
2022-09-13T11:16:54.535Z,65.93
2022-09-13T11:20:13.470Z,65.22
2022-09-13T11:23:23.773Z,64.91
2022-09-13T11:26:14.375Z,64.01
2022-09-13T11:28:55.826Z,63.52
2022-09-13T11:31:43.171Z,62.66
2022-09-13T11:34:30.054Z,63.30
2022-09-13T11:37:17.845Z,63.14
2022-09-13T11:40:00.877Z,62.54
2022-09-13T11:42:44.606Z,62.08
2022-09-13T11:45:27.411Z,61.24
2022-09-13T11:48:13.499Z,61.80
2022-09-13T11:50:57.678Z,61.81
2022-09-13T11:53:59.606Z,62.10
2022-09-13T11:56:35.826Z,61.08
2022-09-13T11:59:22.117Z,59.37
2022-09-13T12:01:56.915Z,58.97
2022-09-13T12:04:34.686Z,59.96
2022-09-13T12:07:11.753Z,59.64
2022-09-13T12:09:53.306Z,58.84
2022-09-13T12:12:26.452Z,57.73
2022-09-13T12:15:01.377Z,57.19
2022-09-13T12:17:36.397Z,57.38
2022-09-13T12:20:17.330Z,55.82
2022-09-13T12:22:49.146Z,56.39
2022-09-13T12:25:24.104Z,55.79
2022-09-13T12:28:05.765Z,55.64
2022-09-13T12:30:43.995Z,56.59
2022-09-13T12:33:17.057Z,55.65
2022-09-13T12:36:02.176Z,53.69
2022-09-13T12:39:18.159Z,52.63
2022-09-13T12:42:07.822Z,53.67
2022-09-13T12:45:08.321Z,52.05
2022-09-13T12:48:15.304Z,53.38
2022-09-13T12:51:06.691Z,51.10
2022-09-13T12:54:07.599Z,52.25
2022-09-13T12:56:57.006Z,52.13
2022-09-13T12:59:50.817Z,53.54
2022-09-13T13:02:35.872Z,51.43
2022-09-13T13:05:19.406Z,52.73
2022-09-13T13:07:57.974Z,47.76
2022-09-13T13:10:33.171Z,49.42
2022-09-13T13:13:16.089Z,47.98
2022-09-13T13:16:25.467Z,47.72
2022-09-13T13:18:55.626Z,49.83
2022-09-13T13:21:33.865Z,48.05
2022-09-13T13:24:52.089Z,46.50
2022-09-13T13:27:48.391Z,47.66
2022-09-13T13:30:52.539Z,45.45
2022-09-13T13:33:27.369Z,46.40
2022-09-13T13:35:56.968Z,45.76
2022-09-13T13:38:47.674Z,44.17
2022-09-13T13:41:53.657Z,43.33
2022-09-13T13:45:22.390Z,41.78
2022-09-13T13:48:12.280Z,41.17
2022-09-13T13:51:20.429Z,41.51
2022-09-13T13:54:01.978Z,39.90
2022-09-13T13:56:49.986Z,39.84
2022-09-13T13:59:29.245Z,41.38
2022-09-13T14:02:02.057Z,40.91
2022-09-13T14:05:19.411Z,40.47
2022-09-13T14:08:27.326Z,41.13
2022-09-13T14:11:05.065Z,42.56
2022-09-13T14:13:54.787Z,42.74
2022-09-13T14:16:40.279Z,43.08
2022-09-13T14:19:24.363Z,41.51
2022-09-13T14:22:20.427Z,39.35
2022-09-13T14:24:51.317Z,40.80
2022-09-13T14:27:24.726Z,38.92
2022-09-13T14:29:58.860Z,38.98
2022-09-13T14:32:37.159Z,38.34
2022-09-13T14:35:30.755Z,37.51
2022-09-13T14:38:14.424Z,37.30
2022-09-13T14:40:49.353Z,38.77
2022-09-13T14:43:21.220Z,39.58
2022-09-13T14:45:59.489Z,39.95
2022-09-13T14:48:34.156Z,40.94
2022-09-13T14:51:09.893Z,41.88
2022-09-13T14:53:41.462Z,42.65
2022-09-13T14:56:18.138Z,42.69
2022-09-13T14:58:52.149Z,42.67
2022-09-13T15:01:29.960Z,42.20
2022-09-13T15:04:01.663Z,42.80
2022-09-13T15:06:33.835Z,42.15
2022-09-13T15:09:18.839Z,42.36
2022-09-13T15:12:01.183Z,40.16
2022-09-13T15:14:34.965Z,41.01
2022-09-13T15:17:14.259Z,40.80
2022-09-13T15:19:45.755Z,41.71
2022-09-13T15:22:20.965Z,41.07
2022-09-13T15:24:53.314Z,42.39
2022-09-13T15:27:30.664Z,42.71
2022-09-13T15:30:03.387Z,43.36
2022-09-13T15:32:43.143Z,43.50
2022-09-13T15:35:24.737Z,44.27
2022-09-13T15:38:02.214Z,44.35
2022-09-13T15:40:42.671Z,44.23
2022-09-13T15:43:11.851Z,43.49
2022-09-13T15:45:43.538Z,43.78
2022-09-13T15:48:26.455Z,44.58
2022-09-13T15:51:11.932Z,44.49
2022-09-13T15:53:46.875Z,45.12
2022-09-13T15:56:19.487Z,46.41
2022-09-13T15:58:51.000Z,46.80
2022-09-13T16:01:20.303Z,47.18
2022-09-13T16:03:51.012Z,47.17
2022-09-13T16:06:24.441Z,47.57
2022-09-13T16:08:54.386Z,48.29
2022-09-13T16:11:23.554Z,48.32
2022-09-13T16:13:52.721Z,48.34
2022-09-13T16:16:22.176Z,48.50
2022-09-13T16:18:52.811Z,48.86
2022-09-13T16:21:22.041Z,48.94
2022-09-13T16:23:51.306Z,48.95
2022-09-13T16:26:20.432Z,48.92
2022-09-13T16:28:49.737Z,49.28
2022-09-13T16:31:20.295Z,49.83
2022-09-13T16:33:54.185Z,49.37
2022-09-13T16:36:23.823Z,49.21
2022-09-13T16:38:52.937Z,49.95
2022-09-13T16:41:22.561Z,49.63
2022-09-13T16:43:51.779Z,49.30
2022-09-13T16:46:21.105Z,50.00
2022-09-13T16:48:55.673Z,49.64
2022-09-13T16:51:25.773Z,49.39
2022-09-13T16:53:56.065Z,49.59
2022-09-13T16:56:27.407Z,50.04
2022-09-13T16:58:57.271Z,49.70
2022-09-13T17:01:29.395Z,50.45
2022-09-13T17:04:02.386Z,50.13
2022-09-13T17:06:32.528Z,50.93
2022-09-13T17:09:05.428Z,51.03
2022-09-13T17:11:38.630Z,51.15
2022-09-13T17:14:11.010Z,51.37
2022-09-13T17:16:44.580Z,51.49
2022-09-13T17:19:20.943Z,51.67
2022-09-13T17:21:51.561Z,51.96
2022-09-13T17:24:20.930Z,51.47
2022-09-13T17:26:50.077Z,51.99
2022-09-13T17:29:23.392Z,52.38
2022-09-13T17:31:52.715Z,51.64
2022-09-13T17:34:23.264Z,51.92
2022-09-13T17:36:52.577Z,52.48
2022-09-13T17:39:22.386Z,52.43
2022-09-13T17:41:51.706Z,52.41
2022-09-13T17:44:21.324Z,52.77
2022-09-13T17:46:50.718Z,52.74
2022-09-13T17:49:20.201Z,52.34
2022-09-13T17:51:50.833Z,52.78
2022-09-13T17:54:20.353Z,52.86
2022-09-13T17:56:51.622Z,52.80
2022-09-13T17:59:23.039Z,53.11
2022-09-13T18:01:54.881Z,53.36
2022-09-13T18:04:25.773Z,53.57
2022-09-13T18:06:56.567Z,53.63
2022-09-13T18:09:27.024Z,53.71
2022-09-13T18:11:56.184Z,53.82
2022-09-13T18:14:27.708Z,53.65
2022-09-13T18:16:58.144Z,53.94
2022-09-13T18:19:44.779Z,54.83
2022-09-13T18:22:17.342Z,55.14
2022-09-13T18:24:46.838Z,55.01
2022-09-13T18:27:16.111Z,55.25
2022-09-13T18:29:45.346Z,55.70
2022-09-13T18:32:14.594Z,55.87
2022-09-13T18:34:44.351Z,57.22
2022-09-13T18:37:13.735Z,57.13
2022-09-13T18:39:44.243Z,57.49
2022-09-13T18:42:13.494Z,57.55
2022-09-13T18:44:42.617Z,57.69
2022-09-13T18:47:13.120Z,58.15
2022-09-13T18:49:42.335Z,58.95
2022-09-13T18:52:12.460Z,58.78
2022-09-13T18:54:43.422Z,59.45
2022-09-13T18:57:12.658Z,59.93
2022-09-13T18:59:41.832Z,59.82
2022-09-13T19:02:11.965Z,59.75
2022-09-13T19:04:41.351Z,59.92
2022-09-13T19:07:10.811Z,60.58
2022-09-13T19:09:40.246Z,61.10
2022-09-13T19:12:11.096Z,61.49
2022-09-13T19:14:40.390Z,61.18
2022-09-13T19:17:09.713Z,61.12
2022-09-13T19:19:39.109Z,61.55
2022-09-13T19:22:08.401Z,62.03
2022-09-13T19:24:38.458Z,62.66
2022-09-13T19:27:07.664Z,63.04
2022-09-13T19:29:38.696Z,63.44
2022-09-13T19:32:07.991Z,63.68
2022-09-13T19:34:37.535Z,64.21
2022-09-13T19:37:06.981Z,63.74
2022-09-13T19:39:36.248Z,63.97
2022-09-13T19:42:05.929Z,63.92
2022-09-13T19:44:35.278Z,64.56
2022-09-13T19:47:53.106Z,64.66
2022-09-13T19:49:56.816Z,65.26
2022-09-13T19:52:26.181Z,65.08
2022-09-13T19:54:56.480Z,64.73
2022-09-13T19:57:26.696Z,65.33
2022-09-13T19:59:55.856Z,66.15
2022-09-13T20:02:26.746Z,66.20
2022-09-13T20:04:56.101Z,66.46
2022-09-13T20:07:25.456Z,66.19
2022-09-13T20:09:54.796Z,66.74
2022-09-13T20:12:24.321Z,66.28
2022-09-13T20:14:53.466Z,66.89
2022-09-13T20:17:22.646Z,67.62
2022-09-13T20:19:54.136Z,67.40
2022-09-13T20:22:23.364Z,67.54
2022-09-13T20:24:52.712Z,67.23
2022-09-13T20:27:22.096Z,67.66
2022-09-13T20:29:51.884Z,68.21
2022-09-13T20:32:21.247Z,67.50
2022-09-13T20:34:52.536Z,67.97
2022-09-13T20:37:22.686Z,68.11
2022-09-13T20:39:52.125Z,69.31
2022-09-13T20:42:21.598Z,69.35
2022-09-13T20:44:50.759Z,69.46
2022-09-13T20:47:20.058Z,68.76
2022-09-13T20:49:49.273Z,69.71
2022-09-13T20:52:19.877Z,70.30
2022-09-13T20:54:49.224Z,69.43
2022-09-13T20:57:18.600Z,69.50
2022-09-13T20:59:48.011Z,70.45
2022-09-13T21:02:17.274Z,70.17
2022-09-13T21:04:46.766Z,70.57
2022-09-13T21:07:33.762Z,69.32
2022-09-13T21:10:05.457Z,70.48
2022-09-13T21:12:35.859Z,69.59
2022-09-13T21:15:07.068Z,70.04
2022-09-13T21:17:36.596Z,70.73
2022-09-13T21:20:06.950Z,69.54
2022-09-13T21:22:37.226Z,70.40
2022-09-13T21:25:09.805Z,70.82
2022-09-13T21:27:41.721Z,70.06
2022-09-13T21:30:12.076Z,70.61
2022-09-13T21:32:42.034Z,69.98
2022-09-13T21:35:13.226Z,70.41
2022-09-13T21:37:42.718Z,70.04
2022-09-13T21:40:14.120Z,71.12
2022-09-13T21:42:43.355Z,70.12
2022-09-13T21:45:12.896Z,71.09
2022-09-13T21:47:42.179Z,70.73
2022-09-13T21:50:11.807Z,70.67
2022-09-13T21:52:41.726Z,70.24
2022-09-13T21:55:12.468Z,70.94
2022-09-13T21:57:43.970Z,70.33
2022-09-13T22:00:15.903Z,70.63
2022-09-13T22:02:45.106Z,70.79
2022-09-13T22:05:14.832Z,70.91
2022-09-13T22:07:44.076Z,70.97
2022-09-13T22:10:14.605Z,71.56
2022-09-13T22:12:43.757Z,71.71
2022-09-13T22:15:13.214Z,70.98
2022-09-13T22:17:42.410Z,70.90
2022-09-13T22:20:12.166Z,71.47
2022-09-13T22:22:41.263Z,71.81
2022-09-13T22:25:10.918Z,72.77
2022-09-13T22:27:41.473Z,73.22
2022-09-13T22:30:12.289Z,73.48
2022-09-13T22:32:41.578Z,72.53
2022-09-13T22:35:11.592Z,73.50
2022-09-13T22:37:40.857Z,72.83
2022-09-13T22:40:11.493Z,73.59
2022-09-13T22:42:42.017Z,72.38
2022-09-13T22:45:11.873Z,72.67
2022-09-13T22:47:40.979Z,72.40
2022-09-13T22:50:11.006Z,72.76
2022-09-13T22:52:40.137Z,72.68
2022-09-13T22:55:10.197Z,73.35
2022-09-13T22:57:39.330Z,73.32
2022-09-13T23:00:12.834Z,74.00
2022-09-13T23:02:46.451Z,72.82
2022-09-13T23:05:17.090Z,73.89
2022-09-13T23:07:46.266Z,73.08
2022-09-13T23:10:15.601Z,73.95
2022-09-13T23:12:45.592Z,73.14
2022-09-13T23:15:16.426Z,73.20
2022-09-13T23:17:45.602Z,73.44
2022-09-13T23:20:14.883Z,73.54
2022-09-13T23:22:44.116Z,73.11
2022-09-13T23:25:13.344Z,73.10
2022-09-13T23:27:42.640Z,73.51
2022-09-13T23:30:13.100Z,73.66
2022-09-13T23:32:43.787Z,73.10
2022-09-13T23:35:12.898Z,73.43
2022-09-13T23:37:42.068Z,73.35
2022-09-13T23:40:12.020Z,73.77
2022-09-13T23:42:41.294Z,73.65
2022-09-13T23:45:12.249Z,73.03
2022-09-13T23:47:42.752Z,74.57
2022-09-13T23:50:12.211Z,73.66
2022-09-13T23:52:41.338Z,74.05
2022-09-13T23:55:14.732Z,74.64
2022-09-13T23:57:43.872Z,74.28
